SCIE/CCP METAR and TAF weather

Enter ICAO airport designator
Station Type Date Time Source
SCIE METAR 2022/08/13 13:00 UTC NOAA

SCIE 131300Z 02017KT 9999 BKN007 BKN010 11/11 Q1019


Station Type Date Time Source
SCIE Decoded METAR 2022/08/13 13:00 UTC NOAA

Concepcion, Chile (SCIE) 36-46S 073-03W
Aug 13, 2022 - 09:00 AM EDT / 2022.08.13 1300 UTC
Wind: from the NNE (020 degrees) at 20 MPH (17 KT):0
Visibility: greater than 7 mile(s):0
Sky conditions: mostly cloudy
Temperature: 51 F (11 C)
Dew Point: 51 F (11 C)
Relative Humidity: 100%
Pressure (altimeter): 30.09 in. Hg (1019 hPa)
ob: SCIE 131300Z 02017KT 9999 BKN007 BKN010 11/11 Q1019
cycle: 13

Station Type Date Time Source
SCIE TAF 2022/08/13 12:03 UTC NOAA

TAF SCIE 131037Z 1312/1412 01015KT 8000 -SHRA BKN012 OVC030 TX12/1318Z TN10/1410Z
TEMPO 1315/1321 01020G30KT 4000 RA BKN007 OVC010
BECMG 1403/1405 35007KT 9999 NSW FEW005 BKN010 BKN035

Example: see airport list